createdAt,value
2023-01-30T00:03:01.096Z,1014.51
2023-01-30T00:13:06.284Z,1014.28
2023-01-30T00:23:11.585Z,1013.98
2023-01-30T00:33:17.084Z,1013.62
2023-01-30T00:43:22.532Z,1013.03
2023-01-30T00:53:27.901Z,1012.72
2023-01-30T01:03:33.471Z,1012.27
2023-01-30T01:13:39.271Z,1012.46
2023-01-30T01:23:44.861Z,1012.03
2023-01-30T01:33:49.939Z,1011.62
2023-01-30T01:43:55.554Z,1011.45
2023-01-30T01:54:00.929Z,1011.71
2023-01-30T02:04:06.245Z,1011.50
2023-01-30T02:14:11.708Z,1010.92
2023-01-30T02:24:17.101Z,1010.63
2023-01-30T02:34:22.812Z,1010.27
2023-01-30T02:44:28.434Z,1010.29
2023-01-30T02:54:34.224Z,1009.98
2023-01-30T03:04:39.689Z,1009.64
2023-01-30T03:14:45.428Z,1009.49
2023-01-30T03:24:50.568Z,1009.31
2023-01-30T03:34:55.757Z,1009.24
2023-01-30T03:45:01.452Z,1009.17
2023-01-30T03:55:06.774Z,1008.95
2023-01-30T04:05:12.318Z,1008.71
2023-01-30T04:15:18.276Z,1008.53
2023-01-30T04:25:24.133Z,1008.36
2023-01-30T04:35:29.357Z,1008.29
2023-01-30T04:45:34.985Z,1008.09
2023-01-30T04:55:40.018Z,1007.91
2023-01-30T05:05:45.321Z,1007.78
2023-01-30T05:15:50.272Z,1007.66
2023-01-30T05:25:55.588Z,1007.51
2023-01-30T05:36:00.595Z,1007.50
2023-01-30T05:46:05.403Z,1007.17
2023-01-30T05:56:11.175Z,1007.02
2023-01-30T06:06:16.137Z,1006.79
2023-01-30T06:16:21.631Z,1006.82
2023-01-30T06:26:26.899Z,1006.75
2023-01-30T06:36:32.278Z,1006.75
2023-01-30T06:46:37.672Z,1006.86
2023-01-30T06:56:43.119Z,1006.73
2023-01-30T07:06:48.537Z,1006.55
2023-01-30T07:16:53.767Z,1006.44
2023-01-30T07:26:59.107Z,1006.35
2023-01-30T07:37:04.480Z,1006.30
2023-01-30T07:47:10.014Z,1006.19
2023-01-30T07:57:15.140Z,1006.39
2023-01-30T08:07:20.211Z,1006.60
2023-01-30T08:17:25.173Z,1006.38
2023-01-30T08:27:30.337Z,1006.36
2023-01-30T08:37:35.698Z,1006.15
2023-01-30T08:47:44.051Z,1006.31
2023-01-30T08:57:49.138Z,1006.30
2023-01-30T09:07:54.821Z,1006.28
2023-01-30T09:19:19.201Z,1006.38
2023-01-30T09:29:23.384Z,1006.39
2023-01-30T09:39:28.840Z,1006.52
2023-01-30T09:49:34.463Z,1006.43
2023-01-30T09:59:39.273Z,1006.39
2023-01-30T10:09:44.195Z,1006.24
2023-01-30T10:19:49.143Z,1006.24
2023-01-30T10:29:54.123Z,1006.18
2023-01-30T10:39:59.724Z,1006.28
2023-01-30T10:50:05.193Z,1006.07
2023-01-30T11:00:10.910Z,1006.06
2023-01-30T11:10:16.011Z,1005.96
2023-01-30T11:20:21.936Z,1005.81
2023-01-30T11:30:27.591Z,1005.53
2023-01-30T11:40:33.056Z,1005.29
2023-01-30T11:51:32.288Z,1005.18
2023-01-30T12:02:09.245Z,1005.04
2023-01-30T12:12:14.303Z,1005.08
2023-01-30T12:22:19.454Z,1005.09
2023-01-30T12:32:24.836Z,1004.96
2023-01-30T12:42:30.160Z,1004.75
2023-01-30T12:52:35.584Z,1004.72
2023-01-30T13:02:44.154Z,1004.69
2023-01-30T13:14:09.279Z,1004.59
2023-01-30T13:25:33.642Z,1004.64
2023-01-30T13:35:38.122Z,1004.49
2023-01-30T13:45:43.887Z,1004.23
2023-01-30T13:57:08.442Z,1004.53
2023-01-30T14:07:12.905Z,1004.60
2023-01-30T14:17:18.472Z,1004.99
2023-01-30T14:27:23.773Z,1004.95
2023-01-30T14:37:29.505Z,1005.17
2023-01-30T14:47:45.082Z,1005.55
2023-01-30T14:57:45.073Z,1005.89
2023-01-30T15:07:50.385Z,1006.01
2023-01-30T15:18:07.072Z,1005.97
2023-01-30T15:28:05.678Z,1005.96
2023-01-30T15:38:10.553Z,1006.29
2023-01-30T15:48:16.153Z,1006.32
2023-01-30T15:58:21.258Z,1006.36
2023-01-30T16:08:26.552Z,1006.40
2023-01-30T16:18:31.917Z,1006.60
2023-01-30T16:28:37.100Z,1006.67
2023-01-30T16:38:42.373Z,1006.87
2023-01-30T16:48:48.503Z,1006.96
2023-01-30T17:00:13.307Z,1007.12
2023-01-30T17:10:17.939Z,1007.43
2023-01-30T17:23:02.354Z,1007.79
2023-01-30T17:33:06.495Z,1007.83
2023-01-30T17:43:11.590Z,1008.02
2023-01-30T17:53:16.664Z,1008.19
2023-01-30T18:03:21.963Z,1008.28
2023-01-30T18:13:27.388Z,1008.57
2023-01-30T18:23:32.584Z,1008.75
2023-01-30T18:33:37.844Z,1008.96
2023-01-30T18:43:43.036Z,1009.16
2023-01-30T18:53:48.071Z,1009.39
2023-01-30T19:03:53.856Z,1009.60
2023-01-30T19:13:58.902Z,1009.74
2023-01-30T19:24:03.923Z,1009.86
2023-01-30T19:34:09.131Z,1010.08
2023-01-30T19:44:14.823Z,1010.42
2023-01-30T19:54:20.498Z,1010.56
2023-01-30T20:04:25.858Z,1010.83
2023-01-30T20:14:31.950Z,1010.89
2023-01-30T20:24:37.538Z,1010.98
2023-01-30T20:34:42.947Z,1011.21
2023-01-30T20:44:48.660Z,1011.38
2023-01-30T20:54:54.227Z,1011.62
2023-01-30T21:04:59.834Z,1011.89
2023-01-30T21:15:04.824Z,1012.13
2023-01-30T21:25:10.066Z,1012.24
2023-01-30T21:35:15.645Z,1012.36
2023-01-30T21:45:22.185Z,1012.78
2023-01-30T21:55:27.973Z,1012.77
2023-01-30T22:05:33.528Z,1013.04
2023-01-30T22:15:38.620Z,1013.32
2023-01-30T22:25:45.577Z,1013.40
2023-01-30T22:35:51.098Z,1013.38
2023-01-30T22:45:56.143Z,1013.44
2023-01-30T22:56:01.478Z,1013.52
2023-01-30T23:06:06.783Z,1013.50
2023-01-30T23:16:12.008Z,1013.71
2023-01-30T23:26:17.247Z,1013.76
2023-01-30T23:36:22.976Z,1013.89
2023-01-30T23:46:28.353Z,1013.98
2023-01-30T23:56:33.755Z,1014.02
